sensor_id;sensor_type;location;lat;lon;timestamp;P1;durP1;ratioP1;P2;durP2;ratioP2
24713;SDS011;12820;51.580;5.010;2023-01-28T00:01:42;12.50;;;7.60;;
24713;SDS011;12820;51.580;5.010;2023-01-28T00:06:45;26.77;;;15.13;;
24713;SDS011;12820;51.580;5.010;2023-01-28T00:11:47;14.95;;;8.27;;
24713;SDS011;12820;51.580;5.010;2023-01-28T00:16:49;13.43;;;7.40;;
24713;SDS011;12820;51.580;5.010;2023-01-28T00:21:52;12.48;;;7.13;;
24713;SDS011;12820;51.580;5.010;2023-01-28T00:26:54;19.38;;;11.50;;
24713;SDS011;12820;51.580;5.010;2023-01-28T00:31:56;12.77;;;6.72;;
24713;SDS011;12820;51.580;5.010;2023-01-28T00:36:58;14.45;;;8.13;;
24713;SDS011;12820;51.580;5.010;2023-01-28T00:42:01;30.63;;;16.55;;
24713;SDS011;12820;51.580;5.010;2023-01-28T00:47:03;13.15;;;7.70;;
24713;SDS011;12820;51.580;5.010;2023-01-28T00:52:05;13.73;;;8.10;;
24713;SDS011;12820;51.580;5.010;2023-01-28T00:57:08;22.42;;;12.80;;
24713;SDS011;12820;51.580;5.010;2023-01-28T01:02:10;14.57;;;7.97;;
24713;SDS011;12820;51.580;5.010;2023-01-28T01:07:15;12.45;;;7.18;;
24713;SDS011;12820;51.580;5.010;2023-01-28T01:12:17;11.13;;;6.95;;
24713;SDS011;12820;51.580;5.010;2023-01-28T01:17:20;13.40;;;6.60;;
24713;SDS011;12820;51.580;5.010;2023-01-28T01:22:22;16.02;;;8.68;;
24713;SDS011;12820;51.580;5.010;2023-01-28T01:27:24;12.80;;;7.32;;
24713;SDS011;12820;51.580;5.010;2023-01-28T01:32:30;13.65;;;7.80;;
24713;SDS011;12820;51.580;5.010;2023-01-28T01:37:34;13.75;;;8.15;;
24713;SDS011;12820;51.580;5.010;2023-01-28T01:42:37;12.18;;;7.70;;
24713;SDS011;12820;51.580;5.010;2023-01-28T01:53:02;13.63;;;7.47;;
24713;SDS011;12820;51.580;5.010;2023-01-28T01:58:18;13.30;;;7.68;;
24713;SDS011;12820;51.580;5.010;2023-01-28T02:03:28;14.70;;;8.68;;
24713;SDS011;12820;51.580;5.010;2023-01-28T02:08:37;12.70;;;7.60;;
24713;SDS011;12820;51.580;5.010;2023-01-28T02:13:44;13.93;;;8.25;;
24713;SDS011;12820;51.580;5.010;2023-01-28T02:18:48;12.93;;;7.60;;
24713;SDS011;12820;51.580;5.010;2023-01-28T02:24:01;13.73;;;8.07;;
24713;SDS011;12820;51.580;5.010;2023-01-28T02:29:30;14.57;;;8.30;;
24713;SDS011;12820;51.580;5.010;2023-01-28T02:34:42;16.05;;;8.30;;
24713;SDS011;12820;51.580;5.010;2023-01-28T02:39:53;13.82;;;7.90;;
24713;SDS011;12820;51.580;5.010;2023-01-28T02:45:06;14.32;;;8.20;;
24713;SDS011;12820;51.580;5.010;2023-01-28T02:50:18;13.75;;;8.27;;
24713;SDS011;12820;51.580;5.010;2023-01-28T03:00:43;13.45;;;7.88;;
24713;SDS011;12820;51.580;5.010;2023-01-28T03:05:59;13.48;;;7.55;;
24713;SDS011;12820;51.580;5.010;2023-01-28T03:11:04;13.00;;;7.40;;
24713;SDS011;12820;51.580;5.010;2023-01-28T03:21:47;13.27;;;7.30;;
24713;SDS011;12820;51.580;5.010;2023-01-28T03:32:40;13.52;;;7.40;;
24713;SDS011;12820;51.580;5.010;2023-01-28T03:38:02;15.90;;;7.97;;
24713;SDS011;12820;51.580;5.010;2023-01-28T03:43:19;13.82;;;8.05;;
24713;SDS011;12820;51.580;5.010;2023-01-28T03:48:23;14.40;;;8.20;;
24713;SDS011;12820;51.580;5.010;2023-01-28T03:53:27;15.07;;;8.32;;
24713;SDS011;12820;51.580;5.010;2023-01-28T03:58:31;15.45;;;8.50;;
24713;SDS011;12820;51.580;5.010;2023-01-28T04:03:52;14.23;;;7.97;;
24713;SDS011;12820;51.580;5.010;2023-01-28T04:09:00;14.35;;;8.32;;
24713;SDS011;12820;51.580;5.010;2023-01-28T04:14:20;15.00;;;8.70;;
24713;SDS011;12820;51.580;5.010;2023-01-28T04:19:33;13.73;;;7.57;;
24713;SDS011;12820;51.580;5.010;2023-01-28T04:24:39;14.80;;;7.80;;
24713;SDS011;12820;51.580;5.010;2023-01-28T04:29:41;15.85;;;8.40;;
24713;SDS011;12820;51.580;5.010;2023-01-28T04:35:00;17.75;;;8.48;;
24713;SDS011;12820;51.580;5.010;2023-01-28T04:40:27;13.95;;;8.00;;
24713;SDS011;12820;51.580;5.010;2023-01-28T04:45:32;14.93;;;8.07;;
24713;SDS011;12820;51.580;5.010;2023-01-28T04:50:47;15.00;;;7.85;;
24713;SDS011;12820;51.580;5.010;2023-01-28T04:56:00;15.00;;;8.23;;
24713;SDS011;12820;51.580;5.010;2023-01-28T05:01:05;16.25;;;8.70;;
24713;SDS011;12820;51.580;5.010;2023-01-28T05:06:08;16.95;;;9.18;;
24713;SDS011;12820;51.580;5.010;2023-01-28T05:11:16;16.75;;;8.35;;
24713;SDS011;12820;51.580;5.010;2023-01-28T05:16:21;18.20;;;9.18;;
24713;SDS011;12820;51.580;5.010;2023-01-28T05:21:23;17.35;;;8.23;;
24713;SDS011;12820;51.580;5.010;2023-01-28T05:31:36;14.63;;;8.00;;
24713;SDS011;12820;51.580;5.010;2023-01-28T05:36:38;15.73;;;8.93;;
24713;SDS011;12820;51.580;5.010;2023-01-28T05:41:57;15.70;;;8.65;;
24713;SDS011;12820;51.580;5.010;2023-01-28T05:47:00;14.85;;;8.13;;
24713;SDS011;12820;51.580;5.010;2023-01-28T05:52:18;15.10;;;8.18;;
24713;SDS011;12820;51.580;5.010;2023-01-28T05:57:20;15.65;;;8.18;;
24713;SDS011;12820;51.580;5.010;2023-01-28T06:02:24;14.90;;;8.45;;
24713;SDS011;12820;51.580;5.010;2023-01-28T06:07:30;14.98;;;8.23;;
24713;SDS011;12820;51.580;5.010;2023-01-28T06:12:32;15.27;;;8.55;;
24713;SDS011;12820;51.580;5.010;2023-01-28T06:18:12;14.75;;;8.00;;
24713;SDS011;12820;51.580;5.010;2023-01-28T06:23:15;16.30;;;8.68;;
24713;SDS011;12820;51.580;5.010;2023-01-28T06:28:17;16.55;;;8.95;;
24713;SDS011;12820;51.580;5.010;2023-01-28T06:33:20;17.27;;;8.98;;
24713;SDS011;12820;51.580;5.010;2023-01-28T06:38:23;17.38;;;9.00;;
24713;SDS011;12820;51.580;5.010;2023-01-28T06:43:25;16.38;;;9.10;;
24713;SDS011;12820;51.580;5.010;2023-01-28T06:48:29;17.40;;;9.15;;
24713;SDS011;12820;51.580;5.010;2023-01-28T06:53:31;18.27;;;9.95;;
24713;SDS011;12820;51.580;5.010;2023-01-28T06:58:33;17.50;;;9.40;;
24713;SDS011;12820;51.580;5.010;2023-01-28T07:03:36;19.63;;;10.10;;
24713;SDS011;12820;51.580;5.010;2023-01-28T07:08:38;16.13;;;8.55;;
24713;SDS011;12820;51.580;5.010;2023-01-28T07:13:42;17.13;;;8.80;;
24713;SDS011;12820;51.580;5.010;2023-01-28T07:18:44;16.70;;;9.05;;
24713;SDS011;12820;51.580;5.010;2023-01-28T07:23:47;17.42;;;9.57;;
24713;SDS011;12820;51.580;5.010;2023-01-28T07:28:49;19.10;;;9.75;;
24713;SDS011;12820;51.580;5.010;2023-01-28T07:33:51;16.73;;;8.70;;
24713;SDS011;12820;51.580;5.010;2023-01-28T07:38:53;16.20;;;8.30;;
24713;SDS011;12820;51.580;5.010;2023-01-28T07:43:55;15.48;;;8.57;;
24713;SDS011;12820;51.580;5.010;2023-01-28T07:48:57;17.17;;;8.73;;
24713;SDS011;12820;51.580;5.010;2023-01-28T07:53:59;17.42;;;9.07;;
24713;SDS011;12820;51.580;5.010;2023-01-28T07:59:02;17.13;;;9.20;;
24713;SDS011;12820;51.580;5.010;2023-01-28T08:04:05;16.48;;;9.02;;
24713;SDS011;12820;51.580;5.010;2023-01-28T08:09:07;18.90;;;9.30;;
24713;SDS011;12820;51.580;5.010;2023-01-28T08:14:10;18.75;;;9.65;;
24713;SDS011;12820;51.580;5.010;2023-01-28T08:19:12;18.25;;;9.25;;
24713;SDS011;12820;51.580;5.010;2023-01-28T08:24:14;17.88;;;9.32;;
24713;SDS011;12820;51.580;5.010;2023-01-28T08:29:16;19.00;;;9.27;;
24713;SDS011;12820;51.580;5.010;2023-01-28T08:34:18;18.77;;;9.85;;
24713;SDS011;12820;51.580;5.010;2023-01-28T08:39:20;17.83;;;9.38;;
24713;SDS011;12820;51.580;5.010;2023-01-28T08:44:22;20.67;;;9.80;;
24713;SDS011;12820;51.580;5.010;2023-01-28T08:49:25;20.73;;;10.30;;
24713;SDS011;12820;51.580;5.010;2023-01-28T08:54:27;18.35;;;10.18;;
24713;SDS011;12820;51.580;5.010;2023-01-28T08:59:29;22.17;;;10.50;;
24713;SDS011;12820;51.580;5.010;2023-01-28T09:04:31;17.65;;;9.40;;
24713;SDS011;12820;51.580;5.010;2023-01-28T09:09:33;18.63;;;9.95;;
24713;SDS011;12820;51.580;5.010;2023-01-28T09:14:35;20.05;;;10.00;;
24713;SDS011;12820;51.580;5.010;2023-01-28T09:19:38;17.63;;;9.35;;
24713;SDS011;12820;51.580;5.010;2023-01-28T09:24:40;18.13;;;9.70;;
24713;SDS011;12820;51.580;5.010;2023-01-28T09:29:42;22.92;;;9.90;;
24713;SDS011;12820;51.580;5.010;2023-01-28T09:34:44;19.80;;;10.38;;
24713;SDS011;12820;51.580;5.010;2023-01-28T09:39:46;19.42;;;10.98;;
24713;SDS011;12820;51.580;5.010;2023-01-28T09:50:25;20.23;;;10.35;;
24713;SDS011;12820;51.580;5.010;2023-01-28T09:55:35;16.33;;;9.05;;
24713;SDS011;12820;51.580;5.010;2023-01-28T10:11:42;15.07;;;9.00;;
24713;SDS011;12820;51.580;5.010;2023-01-28T10:16:57;16.73;;;9.38;;
24713;SDS011;12820;51.580;5.010;2023-01-28T10:22:27;15.60;;;9.00;;
24713;SDS011;12820;51.580;5.010;2023-01-28T10:27:32;17.48;;;9.35;;
24713;SDS011;12820;51.580;5.010;2023-01-28T10:32:37;14.60;;;8.52;;
24713;SDS011;12820;51.580;5.010;2023-01-28T10:37:46;16.52;;;9.52;;
24713;SDS011;12820;51.580;5.010;2023-01-28T10:42:48;22.35;;;10.10;;
24713;SDS011;12820;51.580;5.010;2023-01-28T10:53:18;15.32;;;9.07;;
24713;SDS011;12820;51.580;5.010;2023-01-28T10:58:23;16.30;;;10.10;;
24713;SDS011;12820;51.580;5.010;2023-01-28T11:03:27;19.35;;;10.05;;
24713;SDS011;12820;51.580;5.010;2023-01-28T11:08:41;18.55;;;10.15;;
24713;SDS011;12820;51.580;5.010;2023-01-28T11:13:48;16.85;;;9.35;;
24713;SDS011;12820;51.580;5.010;2023-01-28T11:18:52;20.02;;;10.93;;
24713;SDS011;12820;51.580;5.010;2023-01-28T11:23:58;17.75;;;9.63;;
24713;SDS011;12820;51.580;5.010;2023-01-28T11:29:02;17.10;;;9.63;;
24713;SDS011;12820;51.580;5.010;2023-01-28T11:34:04;18.15;;;9.40;;
24713;SDS011;12820;51.580;5.010;2023-01-28T11:39:40;14.90;;;8.23;;
24713;SDS011;12820;51.580;5.010;2023-01-28T11:44:35;16.27;;;7.85;;
24713;SDS011;12820;51.580;5.010;2023-01-28T12:00:36;11.02;;;6.10;;
24713;SDS011;12820;51.580;5.010;2023-01-28T12:05:53;11.23;;;6.65;;
24713;SDS011;12820;51.580;5.010;2023-01-28T12:22:28;10.32;;;5.85;;
24713;SDS011;12820;51.580;5.010;2023-01-28T12:27:57;11.30;;;5.63;;
24713;SDS011;12820;51.580;5.010;2023-01-28T12:43:46;13.25;;;7.68;;
24713;SDS011;12820;51.580;5.010;2023-01-28T12:48:50;13.23;;;7.13;;
24713;SDS011;12820;51.580;5.010;2023-01-28T12:54:23;13.90;;;7.78;;
24713;SDS011;12820;51.580;5.010;2023-01-28T13:15:25;9.07;;;5.50;;
24713;SDS011;12820;51.580;5.010;2023-01-28T13:20:47;10.80;;;5.53;;
24713;SDS011;12820;51.580;5.010;2023-01-28T13:25:54;9.68;;;5.80;;
24713;SDS011;12820;51.580;5.010;2023-01-28T13:31:16;10.23;;;5.28;;
24713;SDS011;12820;51.580;5.010;2023-01-28T13:36:22;11.23;;;5.53;;
24713;SDS011;12820;51.580;5.010;2023-01-28T13:41:40;10.63;;;5.20;;
24713;SDS011;12820;51.580;5.010;2023-01-28T13:46:59;9.63;;;5.07;;
24713;SDS011;12820;51.580;5.010;2023-01-28T13:52:13;8.52;;;4.88;;
24713;SDS011;12820;51.580;5.010;2023-01-28T14:13:57;9.30;;;5.15;;
24713;SDS011;12820;51.580;5.010;2023-01-28T14:19:13;8.70;;;5.63;;
24713;SDS011;12820;51.580;5.010;2023-01-28T14:24:16;7.80;;;4.72;;
24713;SDS011;12820;51.580;5.010;2023-01-28T14:29:32;7.65;;;4.68;;
24713;SDS011;12820;51.580;5.010;2023-01-28T14:34:45;10.90;;;5.45;;
24713;SDS011;12820;51.580;5.010;2023-01-28T14:39:50;7.50;;;4.97;;
24713;SDS011;12820;51.580;5.010;2023-01-28T14:50:38;8.55;;;5.63;;
24713;SDS011;12820;51.580;5.010;2023-01-28T14:55:53;12.32;;;9.05;;
24713;SDS011;12820;51.580;5.010;2023-01-28T15:01:04;11.07;;;6.95;;
24713;SDS011;12820;51.580;5.010;2023-01-28T15:06:13;9.80;;;6.03;;
24713;SDS011;12820;51.580;5.010;2023-01-28T15:11:19;10.18;;;6.05;;
24713;SDS011;12820;51.580;5.010;2023-01-28T15:16:27;10.45;;;6.07;;
24713;SDS011;12820;51.580;5.010;2023-01-28T15:21:31;10.05;;;6.35;;
24713;SDS011;12820;51.580;5.010;2023-01-28T15:26:34;9.57;;;6.22;;
24713;SDS011;12820;51.580;5.010;2023-01-28T15:31:37;14.25;;;7.28;;
24713;SDS011;12820;51.580;5.010;2023-01-28T15:36:50;13.32;;;8.02;;
24713;SDS011;12820;51.580;5.010;2023-01-28T15:41:56;13.55;;;7.32;;
24713;SDS011;12820;51.580;5.010;2023-01-28T15:47:03;13.55;;;8.00;;
24713;SDS011;12820;51.580;5.010;2023-01-28T15:52:16;15.73;;;7.57;;
24713;SDS011;12820;51.580;5.010;2023-01-28T15:57:24;15.95;;;8.40;;
24713;SDS011;12820;51.580;5.010;2023-01-28T16:02:30;15.30;;;8.23;;
24713;SDS011;12820;51.580;5.010;2023-01-28T16:07:33;14.25;;;7.90;;
24713;SDS011;12820;51.580;5.010;2023-01-28T16:12:49;15.68;;;8.45;;
24713;SDS011;12820;51.580;5.010;2023-01-28T16:17:53;15.73;;;8.57;;
24713;SDS011;12820;51.580;5.010;2023-01-28T16:22:59;16.02;;;8.13;;
24713;SDS011;12820;51.580;5.010;2023-01-28T16:28:10;15.25;;;8.77;;
24713;SDS011;12820;51.580;5.010;2023-01-28T16:33:19;15.43;;;8.00;;
24713;SDS011;12820;51.580;5.010;2023-01-28T16:38:25;15.73;;;8.40;;
24713;SDS011;12820;51.580;5.010;2023-01-28T16:43:32;21.27;;;11.60;;
24713;SDS011;12820;51.580;5.010;2023-01-28T16:48:35;16.35;;;8.65;;
24713;SDS011;12820;51.580;5.010;2023-01-28T16:53:37;16.67;;;8.55;;
24713;SDS011;12820;51.580;5.010;2023-01-28T16:58:40;17.10;;;9.75;;
24713;SDS011;12820;51.580;5.010;2023-01-28T17:03:42;19.20;;;10.20;;
24713;SDS011;12820;51.580;5.010;2023-01-28T17:08:44;23.45;;;11.27;;
24713;SDS011;12820;51.580;5.010;2023-01-28T17:13:46;20.23;;;10.77;;
24713;SDS011;12820;51.580;5.010;2023-01-28T17:18:49;27.25;;;14.13;;
24713;SDS011;12820;51.580;5.010;2023-01-28T17:23:52;30.27;;;15.63;;
24713;SDS011;12820;51.580;5.010;2023-01-28T17:28:54;21.42;;;11.82;;
24713;SDS011;12820;51.580;5.010;2023-01-28T17:33:57;18.42;;;10.23;;
24713;SDS011;12820;51.580;5.010;2023-01-28T17:39:00;20.55;;;10.65;;
24713;SDS011;12820;51.580;5.010;2023-01-28T17:44:02;17.02;;;9.48;;
24713;SDS011;12820;51.580;5.010;2023-01-28T17:49:05;17.70;;;9.38;;
24713;SDS011;12820;51.580;5.010;2023-01-28T17:54:07;20.23;;;10.40;;
24713;SDS011;12820;51.580;5.010;2023-01-28T17:59:11;22.70;;;10.48;;
24713;SDS011;12820;51.580;5.010;2023-01-28T18:04:18;21.40;;;11.48;;
24713;SDS011;12820;51.580;5.010;2023-01-28T18:09:20;22.50;;;11.90;;
24713;SDS011;12820;51.580;5.010;2023-01-28T18:14:22;23.50;;;12.38;;
24713;SDS011;12820;51.580;5.010;2023-01-28T18:19:24;29.25;;;13.73;;
24713;SDS011;12820;51.580;5.010;2023-01-28T18:24:27;24.50;;;12.80;;
24713;SDS011;12820;51.580;5.010;2023-01-28T18:29:30;34.45;;;17.88;;
24713;SDS011;12820;51.580;5.010;2023-01-28T18:34:32;22.05;;;12.40;;
24713;SDS011;12820;51.580;5.010;2023-01-28T18:39:35;22.90;;;11.38;;
24713;SDS011;12820;51.580;5.010;2023-01-28T18:44:38;25.80;;;13.30;;
24713;SDS011;12820;51.580;5.010;2023-01-28T18:49:40;27.35;;;13.77;;
24713;SDS011;12820;51.580;5.010;2023-01-28T18:54:43;24.08;;;12.45;;
24713;SDS011;12820;51.580;5.010;2023-01-28T18:59:46;26.98;;;13.15;;
24713;SDS011;12820;51.580;5.010;2023-01-28T19:04:48;29.30;;;13.95;;
24713;SDS011;12820;51.580;5.010;2023-01-28T19:09:50;30.27;;;15.30;;
24713;SDS011;12820;51.580;5.010;2023-01-28T19:14:52;29.63;;;14.95;;
24713;SDS011;12820;51.580;5.010;2023-01-28T19:19:54;29.83;;;14.40;;
24713;SDS011;12820;51.580;5.010;2023-01-28T19:24:56;27.63;;;13.93;;
24713;SDS011;12820;51.580;5.010;2023-01-28T19:29:58;42.42;;;21.27;;
24713;SDS011;12820;51.580;5.010;2023-01-28T19:35:01;36.35;;;19.02;;
24713;SDS011;12820;51.580;5.010;2023-01-28T19:40:03;31.13;;;16.65;;
24713;SDS011;12820;51.580;5.010;2023-01-28T19:45:06;31.33;;;15.65;;
24713;SDS011;12820;51.580;5.010;2023-01-28T19:50:09;30.10;;;14.50;;
24713;SDS011;12820;51.580;5.010;2023-01-28T19:55:11;26.33;;;14.60;;
24713;SDS011;12820;51.580;5.010;2023-01-28T20:00:14;28.80;;;16.23;;
24713;SDS011;12820;51.580;5.010;2023-01-28T20:05:16;32.72;;;16.52;;
24713;SDS011;12820;51.580;5.010;2023-01-28T20:10:18;34.50;;;16.13;;
24713;SDS011;12820;51.580;5.010;2023-01-28T20:15:20;29.83;;;16.45;;
24713;SDS011;12820;51.580;5.010;2023-01-28T20:20:22;33.97;;;18.73;;
24713;SDS011;12820;51.580;5.010;2023-01-28T20:25:25;40.03;;;16.00;;
24713;SDS011;12820;51.580;5.010;2023-01-28T20:30:27;99.00;;;31.02;;
24713;SDS011;12820;51.580;5.010;2023-01-28T20:35:29;43.72;;;17.88;;
24713;SDS011;12820;51.580;5.010;2023-01-28T20:40:31;28.30;;;14.05;;
24713;SDS011;12820;51.580;5.010;2023-01-28T20:45:34;35.67;;;16.30;;
24713;SDS011;12820;51.580;5.010;2023-01-28T20:50:36;37.85;;;19.90;;
24713;SDS011;12820;51.580;5.010;2023-01-28T20:55:38;31.92;;;15.55;;
24713;SDS011;12820;51.580;5.010;2023-01-28T21:00:40;29.73;;;15.00;;
24713;SDS011;12820;51.580;5.010;2023-01-28T21:05:45;30.27;;;15.25;;
24713;SDS011;12820;51.580;5.010;2023-01-28T21:10:48;31.38;;;15.70;;
24713;SDS011;12820;51.580;5.010;2023-01-28T21:15:53;30.38;;;14.60;;
24713;SDS011;12820;51.580;5.010;2023-01-28T21:21:04;30.08;;;14.85;;
24713;SDS011;12820;51.580;5.010;2023-01-28T21:26:16;30.35;;;15.73;;
24713;SDS011;12820;51.580;5.010;2023-01-28T21:31:19;31.83;;;16.42;;
24713;SDS011;12820;51.580;5.010;2023-01-28T21:36:23;33.17;;;15.52;;
24713;SDS011;12820;51.580;5.010;2023-01-28T21:41:26;36.03;;;17.17;;
24713;SDS011;12820;51.580;5.010;2023-01-28T21:46:29;34.90;;;16.95;;
24713;SDS011;12820;51.580;5.010;2023-01-28T21:51:33;30.52;;;15.00;;
24713;SDS011;12820;51.580;5.010;2023-01-28T21:56:44;34.85;;;17.23;;
24713;SDS011;12820;51.580;5.010;2023-01-28T22:01:47;33.13;;;16.95;;
24713;SDS011;12820;51.580;5.010;2023-01-28T22:06:51;34.00;;;16.65;;
24713;SDS011;12820;51.580;5.010;2023-01-28T22:11:55;36.15;;;18.40;;
24713;SDS011;12820;51.580;5.010;2023-01-28T22:16:57;45.65;;;23.52;;
24713;SDS011;12820;51.580;5.010;2023-01-28T22:21:59;38.35;;;18.27;;
24713;SDS011;12820;51.580;5.010;2023-01-28T22:27:02;32.33;;;16.20;;
24713;SDS011;12820;51.580;5.010;2023-01-28T22:32:04;31.25;;;16.70;;
24713;SDS011;12820;51.580;5.010;2023-01-28T22:37:06;42.25;;;18.95;;
24713;SDS011;12820;51.580;5.010;2023-01-28T22:42:10;37.45;;;16.33;;
24713;SDS011;12820;51.580;5.010;2023-01-28T22:47:12;40.38;;;19.30;;
24713;SDS011;12820;51.580;5.010;2023-01-28T22:52:14;33.95;;;16.75;;
24713;SDS011;12820;51.580;5.010;2023-01-28T22:57:16;37.55;;;19.73;;
24713;SDS011;12820;51.580;5.010;2023-01-28T23:02:18;38.25;;;18.80;;
24713;SDS011;12820;51.580;5.010;2023-01-28T23:07:20;35.00;;;17.88;;
24713;SDS011;12820;51.580;5.010;2023-01-28T23:12:22;41.72;;;21.45;;
24713;SDS011;12820;51.580;5.010;2023-01-28T23:17:24;36.55;;;17.95;;
24713;SDS011;12820;51.580;5.010;2023-01-28T23:23:07;43.42;;;19.10;;
24713;SDS011;12820;51.580;5.010;2023-01-28T23:28:34;43.22;;;22.02;;
24713;SDS011;12820;51.580;5.010;2023-01-28T23:33:36;46.92;;;23.33;;
24713;SDS011;12820;51.580;5.010;2023-01-28T23:38:38;45.30;;;23.65;;
24713;SDS011;12820;51.580;5.010;2023-01-28T23:43:40;45.25;;;22.70;;
24713;SDS011;12820;51.580;5.010;2023-01-28T23:48:42;52.28;;;24.00;;
24713;SDS011;12820;51.580;5.010;2023-01-28T23:53:45;47.65;;;24.02;;
24713;SDS011;12820;51.580;5.010;2023-01-28T23:58:51;54.58;;;26.85;;
